Time;durP1;ratioP1;P1;durP2;ratioP2;P2;SDS_P1;SDS_P2;PMS_P1;PMS_P2;Temp;Humidity;BMP_temperature;BMP_pressure;BME280_temperature;BME280_humidity;BME280_pressure;Samples;Min_cycle;Max_cycle;Signal;HPM_P1;HPM_P2
2023/05/13 00:00:19;;;;;;;5.70;4.03;;;;;;;;;;5093617;28;20048;-67
2023/05/13 00:02:46;;;;;;;7.00;4.60;;;;;;;;;;5093553;28;20106;-67
2023/05/13 00:05:12;;;;;;;7.75;5.07;;;;;;;;;;5093567;28;20040;-67
2023/05/13 00:07:40;;;;;;;9.18;5.15;;;;;;;;;;5093406;28;20063;-68
2023/05/13 00:10:07;;;;;;;6.65;4.85;;;;;;;;;;5093713;28;20481;-68
2023/05/13 00:12:36;;;;;;;6.57;4.85;;;;;;;;;;5093589;28;20044;-67
2023/05/13 00:15:02;;;;;;;5.60;5.05;;;;;;;;;;5094000;28;20114;-67
2023/05/13 00:17:29;;;;;;;6.03;5.22;;;;;;;;;;5093678;28;20135;-67
2023/05/13 00:19:55;;;;;;;6.55;5.60;;;;;;;;;;5093729;28;20044;-67
2023/05/13 00:22:22;;;;;;;6.97;5.43;;;;;;;;;;5093670;28;20055;-67
2023/05/13 00:24:48;;;;;;;7.50;5.13;;;;;;;;;;5093952;28;20067;-67
2023/05/13 00:27:15;;;;;;;9.07;5.70;;;;;;;;;;5092934;28;20050;-67
2023/05/13 00:29:43;;;;;;;8.45;5.50;;;;;;;;;;5093317;28;20048;-68
2023/05/13 00:32:09;;;;;;;10.90;5.63;;;;;;;;;;5093279;28;20083;-67
2023/05/13 00:34:36;;;;;;;7.60;5.30;;;;;;;;;;5093356;28;20051;-68
2023/05/13 00:37:02;;;;;;;7.30;5.43;;;;;;;;;;5093509;28;20454;-68
2023/05/13 00:39:29;;;;;;;10.82;5.32;;;;;;;;;;5092906;28;20490;-67
2023/05/13 00:41:55;;;;;;;8.43;5.28;;;;;;;;;;5093303;28;20044;-67
2023/05/13 00:44:22;;;;;;;7.43;5.53;;;;;;;;;;5093105;28;20051;-69
2023/05/13 00:46:50;;;;;;;10.13;5.97;;;;;;;;;;5093033;28;20066;-69
2023/05/13 00:49:17;;;;;;;6.03;5.35;;;;;;;;;;5092958;28;20044;-69
2023/05/13 00:51:44;;;;;;;6.90;6.20;;;;;;;;;;5092879;28;20074;-69
2023/05/13 00:54:10;;;;;;;6.45;5.40;;;;;;;;;;5092830;28;20048;-68
2023/05/13 00:56:37;;;;;;;7.63;5.90;;;;;;;;;;5092748;28;20048;-68
2023/05/13 00:59:04;;;;;;;8.45;6.65;;;;;;;;;;5092356;28;20048;-68
2023/05/13 01:01:39;;;;;;;8.30;6.18;;;;;;;;;;5092081;28;20040;-68
2023/05/13 01:04:17;;;;;;;9.70;6.18;;;;;;;;;;5091836;28;20040;-68
2023/05/13 01:06:54;;;;;;;9.40;6.22;;;;;;;;;;5093087;28;20058;-67
2023/05/13 01:09:30;;;;;;;8.38;6.45;;;;;;;;;;5092464;28;20290;-67
2023/05/13 01:12:04;;;;;;;8.50;5.93;;;;;;;;;;5092657;28;20059;-68
2023/05/13 01:14:34;;;;;;;7.15;5.63;;;;;;;;;;5092159;28;20048;-67
2023/05/13 01:17:07;;;;;;;8.90;6.22;;;;;;;;;;5092639;28;20075;-67
2023/05/13 01:19:39;;;;;;;;;;;;;;;;;;5092357;28;20044;-67
2023/05/13 01:22:07;;;;;;;7.80;5.38;;;;;;;;;;5092634;28;19927;-67
2023/05/13 01:24:34;;;;;;;11.98;8.05;;;;;;;;;;5092134;28;20048;-67
2023/05/13 01:27:01;;;;;;;7.75;6.10;;;;;;;;;;5092300;28;20102;-67
2023/05/13 01:29:27;;;;;;;7.20;6.18;;;;;;;;;;5092267;28;20044;-67
2023/05/13 01:31:55;;;;;;;12.10;6.43;;;;;;;;;;5092371;28;20482;-67
2023/05/13 01:34:25;;;;;;;10.50;6.72;;;;;;;;;;5092768;28;20051;-68
2023/05/13 01:36:51;;;;;;;9.45;6.60;;;;;;;;;;5091574;28;20131;-68
2023/05/13 01:39:20;;;;;;;7.15;5.70;;;;;;;;;;5091783;28;20044;-68
2023/05/13 01:41:46;;;;;;;11.15;6.05;;;;;;;;;;5091063;28;20052;-68
2023/05/13 01:44:13;;;;;;;8.35;6.63;;;;;;;;;;5092082;28;20402;-67
2023/05/13 01:46:39;;;;;;;8.55;6.35;;;;;;;;;;5091611;28;20048;-68
2023/05/13 01:49:08;;;;;;;9.60;6.80;;;;;;;;;;5092083;28;20486;-68
2023/05/13 01:51:35;;;;;;;8.02;6.25;;;;;;;;;;5089339;28;20134;-68
2023/05/13 01:54:02;;;;;;;8.98;6.78;;;;;;;;;;5091020;28;20044;-68
2023/05/13 01:56:29;;;;;;;9.00;5.78;;;;;;;;;;5090616;28;20051;-68
2023/05/13 01:58:56;;;;;;;8.07;6.00;;;;;;;;;;5091707;28;20529;-68
2023/05/13 02:01:22;;;;;;;7.78;5.93;;;;;;;;;;5090926;28;20052;-68
2023/05/13 02:03:49;;;;;;;7.97;6.38;;;;;;;;;;5090697;28;20545;-68
2023/05/13 02:06:16;;;;;;;9.75;6.97;;;;;;;;;;5091100;28;20048;-68
2023/05/13 02:08:42;;;;;;;7.60;6.00;;;;;;;;;;5090780;28;20074;-68
2023/05/13 02:11:09;;;;;;;8.80;6.63;;;;;;;;;;5091351;28;20040;-68
2023/05/13 02:13:37;;;;;;;7.95;6.10;;;;;;;;;;5090971;28;20087;-68
2023/05/13 02:16:04;;;;;;;8.30;6.30;;;;;;;;;;5091235;28;20062;-68
2023/05/13 02:18:30;;;;;;;11.35;6.75;;;;;;;;;;5085664;28;20052;-68
2023/05/13 02:20:57;;;;;;;9.60;6.65;;;;;;;;;;5070638;28;20388;-67
2023/05/13 02:23:23;;;;;;;9.20;6.28;;;;;;;;;;5070587;28;20040;-67
2023/05/13 02:25:50;;;;;;;11.07;6.70;;;;;;;;;;5070859;28;20052;-67
2023/05/13 02:28:16;;;;;;;8.95;6.78;;;;;;;;;;5071010;28;20434;-67
2023/05/13 02:30:44;;;;;;;8.55;6.45;;;;;;;;;;5070226;28;20071;-68
2023/05/13 02:33:12;;;;;;;11.13;7.07;;;;;;;;;;5071424;28;20058;-69
2023/05/13 02:35:39;;;;;;;9.10;7.07;;;;;;;;;;5070446;28;20051;-67
2023/05/13 02:38:05;;;;;;;9.13;6.32;;;;;;;;;;5070961;28;20056;-68
2023/05/13 02:40:32;;;;;;;9.05;6.57;;;;;;;;;;5069926;28;20056;-67
2023/05/13 02:42:58;;;;;;;11.65;6.85;;;;;;;;;;5070565;28;20048;-67
2023/05/13 02:45:25;;;;;;;8.40;6.38;;;;;;;;;;5070060;28;20067;-68
2023/05/13 02:47:52;;;;;;;9.02;6.88;;;;;;;;;;5070408;28;20059;-68
2023/05/13 02:50:19;;;;;;;8.98;6.65;;;;;;;;;;5088433;28;20490;-68
2023/05/13 02:52:46;;;;;;;9.55;6.85;;;;;;;;;;5090822;28;20516;-67
2023/05/13 02:55:12;;;;;;;8.65;6.78;;;;;;;;;;5090386;28;20048;-67
2023/05/13 02:57:39;;;;;;;10.48;6.57;;;;;;;;;;5090680;28;20505;-67
2023/05/13 03:00:07;;;;;;;8.68;6.28;;;;;;;;;;5089123;28;20072;-67
2023/05/13 03:02:34;;;;;;;10.02;7.20;;;;;;;;;;5082946;28;20199;-68
2023/05/13 03:05:03;;;;;;;10.10;6.65;;;;;;;;;;5090624;28;20051;-67
2023/05/13 03:07:29;;;;;;;10.68;7.18;;;;;;;;;;5074122;28;20554;-67
2023/05/13 03:09:56;;;;;;;10.13;6.65;;;;;;;;;;5069856;28;20076;-68
2023/05/13 03:12:22;;;;;;;10.60;6.85;;;;;;;;;;5069621;28;20056;-68
2023/05/13 03:14:49;;;;;;;9.07;6.97;;;;;;;;;;5070483;28;20041;-68
2023/05/13 03:17:16;;;;;;;9.98;7.45;;;;;;;;;;5069696;28;20044;-68
2023/05/13 03:19:42;;;;;;;9.63;7.28;;;;;;;;;;5069818;28;20135;-68
2023/05/13 03:22:10;;;;;;;10.82;7.78;;;;;;;;;;5069575;28;20055;-68
2023/05/13 03:24:37;;;;;;;9.65;7.28;;;;;;;;;;5070017;28;20049;-68
2023/05/13 03:27:03;;;;;;;10.40;7.50;;;;;;;;;;5069704;28;20049;-68
2023/05/13 03:29:30;;;;;;;9.02;7.43;;;;;;;;;;5069145;28;20418;-68
2023/05/13 03:31:56;;;;;;;12.80;7.15;;;;;;;;;;5070180;28;20063;-67
2023/05/13 03:34:23;;;;;;;9.38;6.88;;;;;;;;;;5080560;28;20059;-68
2023/05/13 03:36:49;;;;;;;10.27;7.70;;;;;;;;;;5090248;28;20413;-68
2023/05/13 03:39:17;;;;;;;11.13;7.43;;;;;;;;;;5089943;28;20040;-68
2023/05/13 03:41:44;;;;;;;11.07;7.60;;;;;;;;;;5090061;28;20048;-68
2023/05/13 03:44:11;;;;;;;11.13;7.10;;;;;;;;;;5089858;28;20044;-68
2023/05/13 03:46:37;;;;;;;13.32;7.70;;;;;;;;;;5090264;28;20383;-67
2023/05/13 03:49:04;;;;;;;10.50;7.07;;;;;;;;;;5089978;28;20044;-68
2023/05/13 03:51:31;;;;;;;8.85;6.75;;;;;;;;;;5089877;28;20040;-68
2023/05/13 03:53:58;;;;;;;11.68;7.45;;;;;;;;;;5089566;28;20080;-68
2023/05/13 03:56:26;;;;;;;9.52;6.65;;;;;;;;;;5090106;28;20044;-68
2023/05/13 03:58:52;;;;;;;11.02;7.68;;;;;;;;;;5090223;28;20052;-68
2023/05/13 04:01:19;;;;;;;11.13;7.43;;;;;;;;;;5089401;28;20285;-68
2023/05/13 04:03:45;;;;;;;9.05;6.75;;;;;;;;;;5082726;28;20056;-67
2023/05/13 04:06:13;;;;;;;9.35;6.93;;;;;;;;;;5081198;28;20062;-68
2023/05/13 04:08:40;;;;;;;11.50;7.40;;;;;;;;;;5090087;28;20055;-68
2023/05/13 04:11:06;;;;;;;8.45;6.53;;;;;;;;;;5088844;28;20467;-68
2023/05/13 04:13:35;;;;;;;9.95;7.80;;;;;;;;;;5090356;28;20648;-68
2023/05/13 04:16:01;;;;;;;9.40;7.25;;;;;;;;;;5089338;28;20059;-68
2023/05/13 04:18:29;;;;;;;8.90;6.70;;;;;;;;;;5090054;28;20508;-68
2023/05/13 04:20:55;;;;;;;9.25;6.68;;;;;;;;;;5088870;28;20046;-68
2023/05/13 04:23:22;;;;;;;12.68;7.28;;;;;;;;;;5089803;28;20048;-68
2023/05/13 04:25:51;;;;;;;8.88;6.53;;;;;;;;;;5089156;28;20797;-68
2023/05/13 04:28:17;;;;;;;10.90;6.95;;;;;;;;;;5089964;28;20468;-68
2023/05/13 04:30:45;;;;;;;10.18;6.68;;;;;;;;;;5089386;28;20071;-68
2023/05/13 04:33:12;;;;;;;11.00;6.82;;;;;;;;;;5088581;28;20055;-67
2023/05/13 04:35:38;;;;;;;11.73;6.85;;;;;;;;;;5075849;28;20055;-67
2023/05/13 04:38:05;;;;;;;8.50;6.90;;;;;;;;;;5075093;28;20044;-69
2023/05/13 04:40:31;;;;;;;10.02;6.88;;;;;;;;;;5090609;28;20055;-68
2023/05/13 04:42:58;;;;;;;8.02;6.75;;;;;;;;;;5092896;28;20044;-68
2023/05/13 04:45:24;;;;;;;11.63;7.35;;;;;;;;;;5093473;28;20506;-68
2023/05/13 04:47:52;;;;;;;7.78;6.70;;;;;;;;;;5092945;28;20549;-67
2023/05/13 04:50:19;;;;;;;8.73;6.82;;;;;;;;;;5079678;28;20040;-68
2023/05/13 04:52:46;;;;;;;7.38;6.10;;;;;;;;;;5072536;28;20044;-68
2023/05/13 04:55:13;;;;;;;7.22;6.10;;;;;;;;;;5072623;28;20044;-68
2023/05/13 04:57:39;;;;;;;7.75;6.22;;;;;;;;;;5072217;28;20063;-68
2023/05/13 05:00:08;;;;;;;7.82;5.60;;;;;;;;;;5072161;28;20044;-68
2023/05/13 05:02:34;;;;;;;10.07;8.07;;;;;;;;;;5072426;28;20110;-68
2023/05/13 05:05:03;;;;;;;8.13;6.32;;;;;;;;;;5074490;28;20705;-68
2023/05/13 05:07:29;;;;;;;8.32;6.38;;;;;;;;;;5092609;28;20048;-68
2023/05/13 05:09:56;;;;;;;8.63;6.70;;;;;;;;;;5091975;28;20082;-67
2023/05/13 05:12:22;;;;;;;9.82;6.13;;;;;;;;;;5092755;28;20047;-68
2023/05/13 05:14:49;;;;;;;8.50;6.63;;;;;;;;;;5092354;28;20048;-68
2023/05/13 05:17:16;;;;;;;10.23;6.22;;;;;;;;;;5092818;28;20216;-68
2023/05/13 05:19:42;;;;;;;7.35;6.03;;;;;;;;;;5091803;28;20051;-68
2023/05/13 05:22:10;;;;;;;8.02;6.28;;;;;;;;;;5092316;28;20040;-68
2023/05/13 05:24:36;;;;;;;7.95;7.05;;;;;;;;;;5091076;28;20063;-68
2023/05/13 05:27:03;;;;;;;9.10;6.32;;;;;;;;;;5092755;28;20404;-68
2023/05/13 05:29:30;;;;;;;8.77;6.90;;;;;;;;;;5091603;28;20052;-68
2023/05/13 05:31:56;;;;;;;9.48;6.10;;;;;;;;;;5092552;28;20406;-67
2023/05/13 05:34:23;;;;;;;7.90;6.43;;;;;;;;;;5092462;28;20044;-68
2023/05/13 05:36:49;;;;;;;7.90;6.13;;;;;;;;;;5091626;28;20067;-68
2023/05/13 05:39:17;;;;;;;7.10;6.00;;;;;;;;;;5092365;28;20050;-68
2023/05/13 05:41:44;;;;;;;8.98;6.35;;;;;;;;;;5091288;28;20048;-68
2023/05/13 05:44:12;;;;;;;5.97;5.32;;;;;;;;;;5092100;28;20094;-68
2023/05/13 05:46:38;;;;;;;8.32;6.03;;;;;;;;;;5091625;28;20105;-68
2023/05/13 05:49:07;;;;;;;8.35;5.72;;;;;;;;;;5091062;28;20048;-67
2023/05/13 05:51:33;;;;;;;6.72;5.82;;;;;;;;;;5091105;28;20044;-68
2023/05/13 05:54:00;;;;;;;8.40;6.07;;;;;;;;;;5092418;28;20401;-68
2023/05/13 05:56:27;;;;;;;10.07;5.88;;;;;;;;;;5092022;28;20040;-68
2023/05/13 05:58:54;;;;;;;7.47;6.13;;;;;;;;;;5092006;28;20048;-68
2023/05/13 06:01:21;;;;;;;7.97;6.07;;;;;;;;;;5080185;28;20040;-67
2023/05/13 06:03:47;;;;;;;7.80;6.38;;;;;;;;;;5071261;28;20044;-68
2023/05/13 06:06:14;;;;;;;8.77;6.22;;;;;;;;;;5070832;28;20052;-68
2023/05/13 06:08:40;;;;;;;9.55;6.68;;;;;;;;;;5071521;28;20049;-68
2023/05/13 06:11:07;;;;;;;8.57;6.70;;;;;;;;;;5077136;28;20053;-69
2023/05/13 06:13:34;;;;;;;11.30;6.72;;;;;;;;;;5076782;28;20048;-71
2023/05/13 06:16:01;;;;;;;7.05;6.18;;;;;;;;;;5091830;28;20058;-69
2023/05/13 06:18:27;;;;;;;10.02;6.82;;;;;;;;;;5091289;28;20300;-69
2023/05/13 06:20:54;;;;;;;9.30;7.10;;;;;;;;;;5091427;28;20044;-69
2023/05/13 06:23:21;;;;;;;8.35;6.70;;;;;;;;;;5091207;28;20078;-69
2023/05/13 06:25:47;;;;;;;7.63;6.80;;;;;;;;;;5091623;28;20046;-69
2023/05/13 06:28:14;;;;;;;6.32;5.68;;;;;;;;;;5091846;28;20055;-69
2023/05/13 06:30:42;;;;;;;7.53;6.72;;;;;;;;;;5090957;28;20044;-69
2023/05/13 06:33:11;;;;;;;8.60;6.88;;;;;;;;;;5090336;28;20583;-70
2023/05/13 06:35:37;;;;;;;9.55;7.72;;;;;;;;;;5091290;28;20048;-69
2023/05/13 06:38:04;;;;;;;9.50;7.45;;;;;;;;;;5091494;28;20399;-68
2023/05/13 06:40:32;;;;;;;10.20;7.18;;;;;;;;;;5091056;28;20047;-69
2023/05/13 06:42:58;;;;;;;8.85;7.45;;;;;;;;;;5091555;28;20044;-69
2023/05/13 06:45:25;;;;;;;9.45;7.30;;;;;;;;;;5090518;28;20476;-68
2023/05/13 06:47:53;;;;;;;9.10;6.70;;;;;;;;;;5091403;28;20047;-68
2023/05/13 06:50:20;;;;;;;7.10;6.22;;;;;;;;;;5090242;28;20062;-67
2023/05/13 06:52:46;;;;;;;6.63;5.60;;;;;;;;;;5091190;28;20044;-68
2023/05/13 06:55:13;;;;;;;8.00;5.45;;;;;;;;;;5090525;28;20059;-69
2023/05/13 06:57:40;;;;;;;5.93;5.32;;;;;;;;;;5091057;28;20048;-69
2023/05/13 07:00:07;;;;;;;5.78;5.18;;;;;;;;;;5090209;28;20083;-68
2023/05/13 07:02:34;;;;;;;9.05;5.47;;;;;;;;;;5090764;28;20051;-69
2023/05/13 07:05:02;;;;;;;6.18;5.32;;;;;;;;;;5088633;28;20045;-69
2023/05/13 07:07:28;;;;;;;6.13;4.25;;;;;;;;;;5090197;28;20066;-69
2023/05/13 07:09:55;;;;;;;5.53;4.70;;;;;;;;;;5090397;28;20512;-69
2023/05/13 07:12:21;;;;;;;6.63;5.15;;;;;;;;;;5090049;28;20040;-69
2023/05/13 07:14:48;;;;;;;7.03;4.95;;;;;;;;;;5090296;28;20052;-69
2023/05/13 07:17:15;;;;;;;5.03;4.53;;;;;;;;;;5090900;28;20043;-69
2023/05/13 07:19:41;;;;;;;5.90;4.85;;;;;;;;;;5090521;28;20044;-70
2023/05/13 07:22:10;;;;;;;7.10;5.07;;;;;;;;;;5090320;28;20040;-69
2023/05/13 07:24:37;;;;;;;5.43;4.68;;;;;;;;;;5090494;28;20048;-69
2023/05/13 07:27:04;;;;;;;6.70;4.55;;;;;;;;;;5090230;28;20567;-69
2023/05/13 07:29:31;;;;;;;5.15;4.60;;;;;;;;;;5090326;28;20397;-70
2023/05/13 07:31:57;;;;;;;5.53;4.35;;;;;;;;;;5090715;28;20448;-70
2023/05/13 07:34:24;;;;;;;4.78;4.22;;;;;;;;;;5077972;28;20079;-71
2023/05/13 07:36:50;;;;;;;7.20;4.40;;;;;;;;;;5070501;28;20405;-68
2023/05/13 07:39:18;;;;;;;5.90;4.30;;;;;;;;;;5069850;28;20494;-68
2023/05/13 07:41:45;;;;;;;6.03;3.90;;;;;;;;;;5069986;28;20135;-68
2023/05/13 07:44:12;;;;;;;4.88;3.83;;;;;;;;;;5069844;28;20135;-68
2023/05/13 07:46:38;;;;;;;4.45;4.00;;;;;;;;;;5069979;28;20482;-70
2023/05/13 07:49:07;;;;;;;7.10;3.97;;;;;;;;;;5069551;28;20045;-70
2023/05/13 07:51:34;;;;;;;6.00;4.10;;;;;;;;;;5069713;28;20045;-70
2023/05/13 07:54:00;;;;;;;4.20;3.80;;;;;;;;;;5069476;28;20049;-72
2023/05/13 07:56:28;;;;;;;5.72;4.20;;;;;;;;;;5069650;28;20052;-69
2023/05/13 07:58:55;;;;;;;4.55;3.78;;;;;;;;;;5069727;28;20049;-69
2023/05/13 08:01:21;;;;;;;4.63;3.67;;;;;;;;;;5069420;28;20051;-70
2023/05/13 08:03:48;;;;;;;4.93;3.65;;;;;;;;;;5069262;28;20071;-70
2023/05/13 08:06:15;;;;;;;9.85;4.20;;;;;;;;;;5068810;28;20218;-70
2023/05/13 08:08:41;;;;;;;4.32;3.80;;;;;;;;;;5070041;28;20132;-70
2023/05/13 08:11:08;;;;;;;4.97;4.10;;;;;;;;;;5069111;28;20040;-70
2023/05/13 08:13:37;;;;;;;4.57;4.10;;;;;;;;;;5070122;28;20056;-70
2023/05/13 08:16:05;;;;;;;5.05;3.90;;;;;;;;;;5073095;28;20468;-70
2023/05/13 08:18:32;;;;;;;4.40;4.00;;;;;;;;;;5073784;28;20138;-70
2023/05/13 08:20:59;;;;;;;5.75;3.90;;;;;;;;;;5072807;28;20463;-70
2023/05/13 08:23:34;;;;;;;5.68;3.78;;;;;;;;;;5073401;28;20040;-70
2023/05/13 08:26:01;;;;;;;4.90;3.60;;;;;;;;;;5072609;28;20041;-70
2023/05/13 08:28:28;;;;;;;4.50;4.10;;;;;;;;;;5073461;28;20566;-70
2023/05/13 08:31:01;;;;;;;7.72;4.45;;;;;;;;;;5072448;28;20041;-70
2023/05/13 08:33:27;;;;;;;4.68;4.05;;;;;;;;;;5072571;28;20117;-70
2023/05/13 08:35:54;;;;;;;4.32;3.92;;;;;;;;;;5072676;28;20135;-70
2023/05/13 08:38:21;;;;;;;4.80;4.10;;;;;;;;;;5072759;28;20053;-70
2023/05/13 08:40:47;;;;;;;6.18;3.70;;;;;;;;;;5072698;28;20040;-70
2023/05/13 08:43:15;;;;;;;6.90;4.22;;;;;;;;;;5072536;28;20048;-70
2023/05/13 08:45:46;;;;;;;4.07;3.58;;;;;;;;;;5072868;28;20129;-71
2023/05/13 08:48:16;;;;;;;5.63;3.92;;;;;;;;;;5072299;28;20044;-70
2023/05/13 08:50:44;;;;;;;5.65;3.63;;;;;;;;;;5072933;28;20507;-70
2023/05/13 08:53:11;;;;;;;4.93;4.20;;;;;;;;;;5072604;28;20079;-70
2023/05/13 08:55:39;;;;;;;5.63;3.72;;;;;;;;;;5073059;28;20059;-70
2023/05/13 08:58:05;;;;;;;4.00;3.70;;;;;;;;;;5072165;28;20045;-70
2023/05/13 09:00:33;;;;;;;4.20;3.80;;;;;;;;;;5072384;28;20044;-71
2023/05/13 09:02:59;;;;;;;5.20;3.60;;;;;;;;;;5071794;28;20048;-70
2023/05/13 09:05:27;;;;;;;5.75;3.60;;;;;;;;;;5071632;28;20051;-70
2023/05/13 09:07:54;;;;;;;4.05;3.20;;;;;;;;;;5072168;28;20414;-70
2023/05/13 09:10:21;;;;;;;3.85;2.97;;;;;;;;;;5072135;28;20560;-69
2023/05/13 09:12:49;;;;;;;4.28;3.30;;;;;;;;;;5073192;28;20040;-70
2023/05/13 09:15:17;;;;;;;3.67;3.00;;;;;;;;;;5072162;28;20180;-70
2023/05/13 09:17:47;;;;;;;4.47;2.70;;;;;;;;;;5072428;28;20052;-70
2023/05/13 09:20:15;;;;;;;4.05;2.78;;;;;;;;;;5071846;28;20049;-70
2023/05/13 09:22:45;;;;;;;3.80;3.03;;;;;;;;;;5072500;28;20399;-70
2023/05/13 09:25:13;;;;;;;5.05;3.40;;;;;;;;;;5071089;28;20045;-70
2023/05/13 09:28:07;;;;;;;4.53;3.58;;;;;;;;;;5072086;28;20106;-70
2023/05/13 09:30:35;;;;;;;3.80;2.90;;;;;;;;;;5071430;28;20044;-70
2023/05/13 09:33:10;;;;;;;3.30;3.00;;;;;;;;;;5071635;28;20131;-69
2023/05/13 09:35:39;;;;;;;4.20;3.72;;;;;;;;;;5071018;28;20044;-69
2023/05/13 09:38:14;;;;;;;3.53;3.10;;;;;;;;;;5071913;28;20041;-68
2023/05/13 09:40:41;;;;;;;3.40;3.10;;;;;;;;;;5071084;28;20057;-69
2023/05/13 09:43:08;;;;;;;4.30;2.92;;;;;;;;;;5072569;28;20127;-68
2023/05/13 09:45:35;;;;;;;3.40;2.72;;;;;;;;;;5071297;28;20063;-68
2023/05/13 09:48:03;;;;;;;3.30;3.00;;;;;;;;;;5071628;28;20044;-68
2023/05/13 09:50:31;;;;;;;2.85;2.55;;;;;;;;;;5070956;28;20402;-68
2023/05/13 09:52:58;;;;;;;5.47;2.80;;;;;;;;;;5071618;28;20067;-70
2023/05/13 09:55:26;;;;;;;7.78;2.53;;;;;;;;;;5071607;28;20048;-70
2023/05/13 09:57:53;;;;;;;3.25;2.95;;;;;;;;;;5071225;28;20084;-70
2023/05/13 10:00:20;;;;;;;2.70;2.50;;;;;;;;;;5071106;28;20044;-70
2023/05/13 10:02:47;;;;;;;2.78;2.58;;;;;;;;;;5070474;28;20055;-70
2023/05/13 10:05:13;;;;;;;5.53;3.22;;;;;;;;;;5074791;28;20063;-70
2023/05/13 10:07:40;;;;;;;4.57;2.80;;;;;;;;;;5091213;28;20051;-70
2023/05/13 10:10:08;;;;;;;3.38;3.00;;;;;;;;;;5091507;28;20555;-70
2023/05/13 10:12:39;;;;;;;3.55;3.08;;;;;;;;;;5091113;28;20121;-70
2023/05/13 10:15:06;;;;;;;3.08;2.78;;;;;;;;;;5091566;28;20056;-70
2023/05/13 10:17:34;;;;;;;4.95;2.95;;;;;;;;;;5091113;28;20516;-70
2023/05/13 10:20:00;;;;;;;4.55;2.78;;;;;;;;;;5091436;28;20131;-70
2023/05/13 10:22:28;;;;;;;4.40;3.03;;;;;;;;;;5091629;28;20059;-69
2023/05/13 10:24:56;;;;;;;3.85;2.70;;;;;;;;;;5091601;28;20122;-70
2023/05/13 10:27:26;;;;;;;3.92;2.92;;;;;;;;;;5091146;28;20044;-70
2023/05/13 10:29:54;;;;;;;3.88;2.75;;;;;;;;;;5090608;28;20324;-70
2023/05/13 10:32:22;;;;;;;5.13;2.90;;;;;;;;;;5090929;28;20044;-70
2023/05/13 10:34:50;;;;;;;4.07;3.10;;;;;;;;;;5074883;28;20571;-70
2023/05/13 10:37:32;;;;;;;3.83;2.70;;;;;;;;;;5070832;28;20548;-70
2023/05/13 10:40:18;;;;;;;4.20;3.30;;;;;;;;;;5069956;28;20475;-70
2023/05/13 10:42:50;;;;;;;2.75;2.40;;;;;;;;;;5070995;28;20040;-70
2023/05/13 10:45:18;;;;;;;4.60;2.42;;;;;;;;;;5070004;28;20483;-70
2023/05/13 10:47:50;;;;;;;3.28;2.67;;;;;;;;;;5070794;28;20494;-70
2023/05/13 10:50:24;;;;;;;2.80;2.60;;;;;;;;;;5069945;28;20410;-70
2023/05/13 10:52:51;;;;;;;3.65;2.30;;;;;;;;;;5070767;28;20052;-70
2023/05/13 10:55:19;;;;;;;3.42;2.38;;;;;;;;;;5070201;28;20048;-70
2023/05/13 10:58:13;;;;;;;3.03;2.67;;;;;;;;;;5070742;28;20055;-70
2023/05/13 11:00:43;;;;;;;3.85;2.70;;;;;;;;;;5056269;28;20088;-70
2023/05/13 11:03:14;;;;;;;3.45;2.50;;;;;;;;;;5070741;28;20131;-70
2023/05/13 11:05:43;;;;;;;2.42;2.20;;;;;;;;;;5088869;28;20047;-70
2023/05/13 11:08:11;;;;;;;3.67;2.42;;;;;;;;;;5090373;28;20102;-70
2023/05/13 11:10:37;;;;;;;3.30;2.42;;;;;;;;;;5089635;28;20043;-70
2023/05/13 11:13:23;;;;;;;4.53;2.78;;;;;;;;;;5090627;28;20460;-70
2023/05/13 11:15:52;;;;;;;4.85;2.70;;;;;;;;;;5090067;28;20490;-70
2023/05/13 11:18:20;;;;;;;6.82;3.10;;;;;;;;;;5090167;28;20050;-70
2023/05/13 11:20:48;;;;;;;3.88;2.40;;;;;;;;;;5090099;28;20293;-71
2023/05/13 11:23:19;;;;;;;2.70;2.38;;;;;;;;;;5090468;28;20076;-70
2023/05/13 11:25:46;;;;;;;2.97;2.70;;;;;;;;;;5090573;28;20066;-70
2023/05/13 11:28:17;;;;;;;4.10;2.78;;;;;;;;;;5090220;28;20044;-70
2023/05/13 11:30:55;;;;;;;6.13;3.20;;;;;;;;;;5090119;28;20078;-70
2023/05/13 11:33:21;;;;;;;4.32;3.15;;;;;;;;;;5089299;28;20475;-70
2023/05/13 11:36:20;;;;;;;2.83;2.53;;;;;;;;;;5090409;28;20047;-70
2023/05/13 11:38:46;;;;;;;3.70;2.38;;;;;;;;;;5089905;28;20052;-70
2023/05/13 11:41:13;;;;;;;4.45;2.70;;;;;;;;;;5089528;28;20505;-70
2023/05/13 11:43:40;;;;;;;2.88;2.45;;;;;;;;;;5089788;28;20051;-70
2023/05/13 11:46:09;;;;;;;3.90;2.95;;;;;;;;;;5090145;28;20438;-70
2023/05/13 11:48:36;;;;;;;3.22;2.50;;;;;;;;;;5090043;28;20055;-70
2023/05/13 11:51:02;;;;;;;2.30;2.10;;;;;;;;;;5093928;28;20047;-70
2023/05/13 11:53:29;;;;;;;2.83;2.10;;;;;;;;;;5093897;28;20040;-70
2023/05/13 11:55:56;;;;;;;3.55;2.40;;;;;;;;;;5093867;28;20055;-70
2023/05/13 11:58:22;;;;;;;2.75;2.45;;;;;;;;;;5093809;28;20048;-71
2023/05/13 12:00:50;;;;;;;4.57;3.00;;;;;;;;;;5093980;28;20044;-70
2023/05/13 12:03:18;;;;;;;3.88;2.40;;;;;;;;;;5090793;28;20047;-70
2023/05/13 12:05:45;;;;;;;5.10;2.30;;;;;;;;;;5072554;28;20052;-70
2023/05/13 12:08:11;;;;;;;3.63;2.05;;;;;;;;;;5073497;28;20067;-71
2023/05/13 12:10:43;;;;;;;4.32;2.00;;;;;;;;;;5072629;28;20494;-70
2023/05/13 12:13:09;;;;;;;2.40;2.20;;;;;;;;;;5073756;28;20467;-70
2023/05/13 12:15:36;;;;;;;3.50;2.67;;;;;;;;;;5073045;28;20049;-70
2023/05/13 12:18:03;;;;;;;1.77;1.58;;;;;;;;;;5073481;28;20050;-71
2023/05/13 12:20:31;;;;;;;2.35;1.92;;;;;;;;;;5072798;28;20063;-70
2023/05/13 12:23:00;;;;;;;4.60;2.08;;;;;;;;;;5073126;28;20040;-70
2023/05/13 12:25:41;;;;;;;2.05;1.77;;;;;;;;;;5073016;28;20494;-71
2023/05/13 12:28:10;;;;;;;1.98;1.83;;;;;;;;;;5073967;28;20055;-70
2023/05/13 12:30:38;;;;;;;2.50;1.80;;;;;;;;;;5072598;28;20102;-71
2023/05/13 12:33:05;;;;;;;2.30;1.92;;;;;;;;;;5073160;28;20045;-71
2023/05/13 12:35:33;;;;;;;4.25;2.63;;;;;;;;;;5093498;28;20073;-70
2023/05/13 12:38:03;;;;;;;2.25;2.03;;;;;;;;;;5093858;28;20055;-71
2023/05/13 12:40:30;;;;;;;2.78;2.47;;;;;;;;;;5093024;28;20054;-70
2023/05/13 12:42:58;;;;;;;3.45;2.33;;;;;;;;;;5093001;28;20486;-71
2023/05/13 12:45:28;;;;;;;2.50;2.30;;;;;;;;;;5093243;28;20414;-70
2023/05/13 12:47:55;;;;;;;2.40;2.20;;;;;;;;;;5092647;28;20044;-72
2023/05/13 12:50:22;;;;;;;2.35;2.15;;;;;;;;;;5093045;28;20079;-71
2023/05/13 12:52:50;;;;;;;4.10;2.22;;;;;;;;;;5092984;28;20130;-70
2023/05/13 12:55:17;;;;;;;2.42;2.22;;;;;;;;;;5093549;28;20117;-71
2023/05/13 12:57:44;;;;;;;7.70;2.55;;;;;;;;;;5092731;28;20044;-71
2023/05/13 13:00:11;;;;;;;2.03;1.83;;;;;;;;;;5091926;28;20044;-71
2023/05/13 13:02:39;;;;;;;2.38;2.00;;;;;;;;;;5091997;28;20044;-71
2023/05/13 13:05:06;;;;;;;1.95;1.75;;;;;;;;;;5091192;28;20130;-71
2023/05/13 13:07:33;;;;;;;4.20;1.85;;;;;;;;;;5091381;28;20071;-71
2023/05/13 13:10:01;;;;;;;3.38;2.22;;;;;;;;;;5092351;28;20047;-71
2023/05/13 13:12:28;;;;;;;2.63;2.42;;;;;;;;;;5092669;28;20044;-71
2023/05/13 13:14:54;;;;;;;2.47;2.00;;;;;;;;;;5091974;28;20051;-69
2023/05/13 13:17:21;;;;;;;3.90;2.38;;;;;;;;;;5092809;28;20135;-69
2023/05/13 13:19:47;;;;;;;2.42;2.20;;;;;;;;;;5091860;28;20052;-69
2023/05/13 13:22:14;;;;;;;3.45;1.88;;;;;;;;;;5092958;28;20402;-69
2023/05/13 13:24:41;;;;;;;2.47;2.03;;;;;;;;;;5092258;28;20504;-69
2023/05/13 13:27:11;;;;;;;2.25;1.80;;;;;;;;;;5092322;28;20050;-69
2023/05/13 13:29:37;;;;;;;2.13;1.92;;;;;;;;;;5091582;28;20059;-69
2023/05/13 13:32:04;;;;;;;2.67;2.20;;;;;;;;;;5092580;28;20055;-71
2023/05/13 13:34:31;;;;;;;2.17;1.98;;;;;;;;;;5091037;28;20044;-71
2023/05/13 13:36:57;;;;;;;2.03;1.83;;;;;;;;;;5092531;28;20060;-71
2023/05/13 13:39:24;;;;;;;4.40;1.95;;;;;;;;;;5092269;28;20040;-69
2023/05/13 13:41:51;;;;;;;2.55;1.95;;;;;;;;;;5091527;28;20052;-69
2023/05/13 13:44:19;;;;;;;2.28;1.67;;;;;;;;;;5092222;28;20048;-69
2023/05/13 13:46:45;;;;;;;1.75;1.65;;;;;;;;;;5091747;28;20481;-69
2023/05/13 13:49:12;;;;;;;2.30;1.73;;;;;;;;;;5092142;28;20044;-69
2023/05/13 13:51:38;;;;;;;4.85;1.75;;;;;;;;;;5091364;28;20040;-69
2023/05/13 13:54:05;;;;;;;2.78;1.60;;;;;;;;;;5092058;28;20475;-69
2023/05/13 13:56:32;;;;;;;1.58;1.40;;;;;;;;;;5090898;28;20051;-69
2023/05/13 13:58:58;;;;;;;3.10;1.58;;;;;;;;;;5091913;28;20052;-69
2023/05/13 14:01:26;;;;;;;2.03;1.55;;;;;;;;;;5089839;28;20047;-69
2023/05/13 14:03:53;;;;;;;4.05;1.58;;;;;;;;;;5091824;28;20051;-69
2023/05/13 14:06:19;;;;;;;1.90;1.80;;;;;;;;;;5090195;28;20044;-68
2023/05/13 14:08:46;;;;;;;4.28;1.90;;;;;;;;;;5091199;28;20048;-68
2023/05/13 14:11:13;;;;;;;2.50;2.30;;;;;;;;;;5090679;28;20063;-71
2023/05/13 14:13:40;;;;;;;4.70;2.60;;;;;;;;;;5091177;28;20470;-71
2023/05/13 14:16:07;;;;;;;4.28;2.70;;;;;;;;;;5091667;28;20054;-70
2023/05/13 14:18:35;;;;;;;6.38;2.80;;;;;;;;;;5091318;28;20509;-70
2023/05/13 14:21:02;;;;;;;4.82;2.90;;;;;;;;;;5091170;28;20066;-70
2023/05/13 14:23:28;;;;;;;3.45;3.15;;;;;;;;;;5091211;28;20615;-70
2023/05/13 14:25:55;;;;;;;3.97;2.85;;;;;;;;;;5090932;28;20048;-70
2023/05/13 14:28:21;;;;;;;3.58;3.00;;;;;;;;;;5091193;28;20051;-70
2023/05/13 14:30:48;;;;;;;2.88;2.58;;;;;;;;;;5091166;28;20047;-70
2023/05/13 14:33:14;;;;;;;2.63;2.40;;;;;;;;;;5088258;28;20529;-69
2023/05/13 14:35:42;;;;;;;3.72;2.60;;;;;;;;;;5070995;28;20041;-70
2023/05/13 14:38:09;;;;;;;2.97;2.20;;;;;;;;;;5070836;28;20044;-70
2023/05/13 14:40:35;;;;;;;2.40;2.20;;;;;;;;;;5069815;28;20571;-70
2023/05/13 14:43:02;;;;;;;2.22;2.03;;;;;;;;;;5070830;28;20052;-70